createdAt,value
2022-09-12T00:00:57.618Z,60.15
2022-09-12T00:01:57.589Z,58.36
2022-09-12T00:02:57.563Z,58.56
2022-09-12T00:03:57.591Z,58.15
2022-09-12T00:04:57.615Z,60.53
2022-09-12T00:05:57.540Z,56.82
2022-09-12T00:06:57.537Z,59.02
2022-09-12T00:07:57.528Z,61.59
2022-09-12T00:08:57.525Z,57.23
2022-09-12T00:09:57.590Z,58.54
2022-09-12T00:10:57.508Z,58.52
2022-09-12T00:11:57.492Z,56.21
2022-09-12T00:12:57.489Z,60.24
2022-09-12T00:13:57.476Z,58.38
2022-09-12T00:14:57.471Z,54.15
2022-09-12T00:15:57.480Z,58.99
2022-09-12T00:16:57.463Z,58.91
2022-09-12T00:17:57.464Z,59.46
2022-09-12T00:18:57.449Z,56.93
2022-09-12T00:19:57.467Z,56.61
2022-09-12T00:20:57.435Z,60.39
2022-09-12T00:21:57.432Z,57.30
2022-09-12T00:22:57.422Z,63.69
2022-09-12T00:23:57.457Z,58.27
2022-09-12T00:24:57.431Z,58.49
2022-09-12T00:25:57.406Z,58.61
2022-09-12T00:26:57.387Z,62.07
2022-09-12T00:27:57.382Z,57.75
2022-09-12T00:28:57.373Z,56.71
2022-09-12T00:29:57.361Z,59.48
2022-09-12T00:30:57.373Z,54.27
2022-09-12T00:31:57.388Z,59.70
2022-09-12T00:32:57.338Z,59.02
2022-09-12T00:33:57.353Z,59.58
2022-09-12T00:34:57.325Z,61.05
2022-09-12T00:35:57.317Z,57.75
2022-09-12T00:36:57.313Z,58.76
2022-09-12T00:37:57.296Z,62.22
2022-09-12T00:38:57.314Z,57.80
2022-09-12T00:39:57.310Z,61.25
2022-09-12T00:40:57.273Z,56.57
2022-09-12T00:41:57.284Z,58.12
2022-09-12T00:42:57.467Z,58.77
2022-09-12T00:43:57.256Z,59.38
2022-09-12T00:44:57.336Z,55.50
2022-09-12T00:45:57.252Z,58.28
2022-09-12T00:46:57.218Z,58.73
2022-09-12T00:47:57.223Z,61.33
2022-09-12T00:48:57.258Z,59.95
2022-09-12T00:49:57.200Z,59.05
2022-09-12T00:50:57.192Z,59.60
2022-09-12T00:51:57.185Z,59.75
2022-09-12T00:52:57.185Z,57.60
2022-09-12T00:53:57.190Z,63.15
2022-09-12T00:54:57.160Z,57.64
2022-09-12T00:55:57.145Z,61.99
2022-09-12T00:56:57.140Z,57.16
2022-09-12T00:57:57.149Z,59.39
2022-09-12T00:58:57.143Z,62.51
2022-09-12T00:59:57.135Z,59.82
2022-09-12T01:00:57.237Z,62.43
2022-09-12T01:01:57.208Z,59.83
2022-09-12T01:02:57.094Z,60.63
2022-09-12T01:03:57.111Z,60.14
2022-09-12T01:04:57.086Z,61.66
2022-09-12T01:05:57.095Z,59.61
2022-09-12T01:06:57.075Z,61.84
2022-09-12T01:07:57.057Z,59.10
2022-09-12T01:08:57.072Z,61.66
2022-09-12T01:09:57.036Z,59.61
2022-09-12T01:10:57.033Z,63.53
2022-09-12T01:11:57.013Z,61.76
2022-09-12T01:12:57.019Z,57.57
2022-09-12T01:13:57.015Z,60.75
2022-09-12T01:14:57.022Z,65.36
2022-09-12T01:15:56.988Z,56.71
2022-09-12T01:16:56.977Z,61.51
2022-09-12T01:17:56.972Z,60.29
2022-09-12T01:18:56.960Z,60.96
2022-09-12T01:19:56.992Z,59.49
2022-09-12T01:20:56.972Z,60.69
2022-09-12T01:21:56.954Z,62.52
2022-09-12T01:22:56.957Z,61.58
2022-09-12T01:23:56.935Z,62.01
2022-09-12T01:24:56.920Z,60.84
2022-09-12T01:25:56.943Z,63.65
2022-09-12T01:26:56.935Z,61.02
2022-09-12T01:27:56.917Z,57.64
2022-09-12T01:28:56.889Z,59.07
2022-09-12T01:29:56.888Z,62.44
2022-09-12T01:30:56.864Z,59.28
2022-09-12T01:31:56.924Z,58.89
2022-09-12T01:32:56.872Z,59.37
2022-09-12T01:33:56.861Z,60.09
2022-09-12T01:34:56.835Z,63.60
2022-09-12T01:35:56.853Z,63.44
2022-09-12T01:36:56.830Z,59.36
2022-09-12T01:37:56.827Z,57.11
2022-09-12T01:38:56.840Z,59.75
2022-09-12T01:39:56.826Z,60.07
2022-09-12T01:40:56.803Z,61.51
2022-09-12T01:41:56.798Z,59.82
2022-09-12T01:42:56.808Z,62.68
2022-09-12T01:43:56.777Z,60.47
2022-09-12T01:44:56.760Z,62.84
2022-09-12T01:45:56.795Z,64.32
2022-09-12T01:46:56.742Z,65.32
2022-09-12T01:47:56.786Z,63.83
2022-09-12T01:48:56.731Z,62.62
2022-09-12T01:49:56.724Z,62.70
2022-09-12T01:50:56.719Z,62.61
2022-09-12T01:51:56.729Z,59.10
2022-09-12T01:52:56.729Z,63.84
2022-09-12T01:53:56.724Z,64.09
2022-09-12T01:54:56.689Z,62.40
2022-09-12T01:55:56.683Z,59.96
2022-09-12T01:56:56.697Z,62.72
2022-09-12T01:57:56.667Z,63.07
2022-09-12T01:58:56.684Z,60.85
2022-09-12T01:59:56.651Z,61.46
2022-09-12T02:00:56.721Z,64.28
2022-09-12T02:01:56.654Z,60.53
2022-09-12T02:02:56.623Z,63.19
2022-09-12T02:03:56.619Z,59.80
2022-09-12T02:04:56.625Z,60.20
2022-09-12T02:05:56.598Z,61.99
2022-09-12T02:06:56.602Z,60.57
2022-09-12T02:07:56.591Z,64.19
2022-09-12T02:08:56.577Z,61.74
2022-09-12T02:09:56.575Z,61.19
2022-09-12T02:10:56.597Z,65.11
2022-09-12T02:11:56.578Z,61.86
2022-09-12T02:12:56.550Z,63.63
2022-09-12T02:13:56.550Z,65.53
2022-09-12T02:14:56.535Z,63.71
2022-09-12T02:15:56.520Z,64.07
2022-09-12T02:16:57.179Z,63.88
2022-09-12T02:17:56.512Z,57.79
2022-09-12T02:18:56.497Z,61.57
2022-09-12T02:19:56.492Z,65.87
2022-09-12T02:20:56.482Z,62.23
2022-09-12T02:21:56.499Z,59.74
2022-09-12T02:22:56.597Z,66.89
2022-09-12T02:23:56.453Z,63.01
2022-09-12T02:24:56.460Z,58.67
2022-09-12T02:25:56.438Z,60.74
2022-09-12T02:26:56.449Z,62.17
2022-09-12T02:27:56.450Z,57.69
2022-09-12T02:28:56.421Z,65.74
2022-09-12T02:29:56.411Z,62.14
2022-09-12T02:30:56.510Z,65.59
2022-09-12T02:31:56.405Z,62.67
2022-09-12T02:32:56.488Z,59.89
2022-09-12T02:33:56.392Z,62.53
2022-09-12T02:34:56.402Z,64.72
2022-09-12T02:35:56.373Z,61.75
2022-09-12T02:36:56.366Z,62.78
2022-09-12T02:37:56.359Z,67.02
2022-09-12T02:38:56.377Z,61.84
2022-09-12T02:39:56.393Z,60.02
2022-09-12T02:40:56.334Z,61.51
2022-09-12T02:41:56.326Z,64.83
2022-09-12T02:42:56.326Z,62.45
2022-09-12T02:43:56.310Z,60.09
2022-09-12T02:44:56.324Z,62.47
2022-09-12T02:45:56.391Z,65.08
2022-09-12T02:46:56.288Z,60.18
2022-09-12T02:47:56.277Z,62.80
2022-09-12T02:48:56.281Z,65.59
2022-09-12T02:49:56.262Z,64.38
2022-09-12T02:50:56.263Z,62.06
2022-09-12T02:51:56.242Z,65.13
2022-09-12T02:52:56.226Z,59.04
2022-09-12T02:53:56.239Z,61.81
2022-09-12T02:54:56.215Z,59.83
2022-09-12T02:55:56.254Z,64.12
2022-09-12T02:56:56.238Z,64.22
2022-09-12T02:57:56.199Z,63.26
2022-09-12T02:58:56.180Z,63.66
2022-09-12T02:59:56.176Z,63.08
2022-09-12T03:00:56.209Z,63.24
2022-09-12T03:01:56.178Z,64.07
2022-09-12T03:02:56.170Z,63.01
2022-09-12T03:03:56.143Z,64.86
2022-09-12T03:04:56.130Z,62.52
2022-09-12T03:05:56.131Z,64.65
2022-09-12T03:06:56.117Z,61.41
2022-09-12T03:07:56.177Z,63.89
2022-09-12T03:08:56.104Z,64.55
2022-09-12T03:09:56.758Z,63.02
2022-09-12T03:10:56.088Z,63.80
2022-09-12T03:11:56.152Z,65.58
2022-09-12T03:12:56.089Z,66.21
2022-09-12T03:13:56.073Z,59.27
2022-09-12T03:14:56.058Z,61.86
2022-09-12T03:15:56.080Z,64.76
2022-09-12T03:16:56.066Z,65.69
2022-09-12T03:17:56.035Z,64.87
2022-09-12T03:18:56.048Z,64.27
2022-09-12T03:19:56.025Z,63.32
2022-09-12T03:20:56.015Z,63.50
2022-09-12T03:21:56.005Z,66.23
2022-09-12T03:22:56.023Z,64.41
2022-09-12T03:23:55.984Z,64.61
2022-09-12T03:24:56.005Z,61.07
2022-09-12T03:25:55.969Z,64.48
2022-09-12T03:26:55.970Z,65.05
2022-09-12T03:27:55.966Z,65.42
2022-09-12T03:28:55.965Z,61.93
2022-09-12T03:29:55.949Z,66.92
2022-09-12T03:30:55.976Z,66.54
2022-09-12T03:31:55.930Z,62.90
2022-09-12T03:32:55.929Z,66.52
2022-09-12T03:33:55.915Z,65.13
2022-09-12T03:34:55.905Z,64.32
2022-09-12T03:35:55.920Z,65.20
2022-09-12T03:36:55.891Z,66.13
2022-09-12T03:37:55.882Z,64.37
2022-09-12T03:38:55.871Z,66.81
2022-09-12T03:39:55.913Z,64.20
2022-09-12T03:40:55.854Z,63.68
2022-09-12T03:41:55.864Z,63.80
2022-09-12T03:42:55.885Z,63.36
2022-09-12T03:43:55.861Z,60.82
2022-09-12T03:44:55.839Z,66.49
2022-09-12T03:45:55.845Z,65.80
2022-09-12T03:46:55.809Z,61.37
2022-09-12T03:47:55.803Z,65.67
2022-09-12T03:48:55.817Z,61.17
2022-09-12T03:49:55.802Z,63.71
2022-09-12T03:50:55.812Z,64.34
2022-09-12T03:51:55.766Z,64.83
2022-09-12T03:52:55.781Z,63.10
2022-09-12T03:53:55.751Z,64.76
2022-09-12T03:54:56.396Z,62.09
2022-09-12T03:55:55.736Z,64.26
2022-09-12T03:56:55.725Z,65.12
2022-09-12T03:57:55.726Z,64.66
2022-09-12T03:58:55.741Z,63.60
2022-09-12T03:59:55.711Z,66.14
2022-09-12T04:00:55.727Z,62.15
2022-09-12T04:01:55.730Z,62.38
2022-09-12T04:02:55.686Z,64.33
2022-09-12T04:03:55.847Z,62.93
2022-09-12T04:04:55.697Z,64.63
2022-09-12T04:05:55.673Z,64.78
2022-09-12T04:06:55.645Z,62.23
2022-09-12T04:07:55.634Z,62.09
2022-09-12T04:08:55.626Z,64.36
2022-09-12T04:09:55.642Z,64.58
2022-09-12T04:10:55.625Z,64.62
2022-09-12T04:11:55.599Z,64.76
2022-09-12T04:12:55.612Z,66.45
2022-09-12T04:13:55.594Z,67.18
2022-09-12T04:14:55.592Z,64.37
2022-09-12T04:15:55.657Z,64.90
2022-09-12T04:16:55.603Z,65.96
2022-09-12T04:17:55.575Z,65.71
2022-09-12T04:18:55.555Z,64.30
2022-09-12T04:19:55.542Z,64.68
2022-09-12T04:20:55.562Z,60.30
2022-09-12T04:21:55.545Z,62.33
2022-09-12T04:22:55.509Z,64.51
2022-09-12T04:23:55.515Z,65.43
2022-09-12T04:24:55.498Z,64.35
2022-09-12T04:25:55.499Z,65.17
2022-09-12T04:26:55.508Z,66.77
2022-09-12T04:27:55.534Z,65.57
2022-09-12T04:28:55.470Z,64.51
2022-09-12T04:29:55.466Z,62.87
2022-09-12T04:30:55.517Z,64.18
2022-09-12T04:31:55.453Z,66.48
2022-09-12T04:32:55.467Z,65.48
2022-09-12T04:33:55.461Z,60.51
2022-09-12T04:34:55.419Z,59.20
2022-09-12T04:35:55.418Z,57.09
2022-09-12T04:36:55.524Z,60.03
2022-09-12T04:37:55.411Z,59.42
2022-09-12T04:38:55.415Z,60.49
2022-09-12T04:39:55.493Z,63.02
2022-09-12T04:40:55.501Z,63.63
2022-09-12T04:41:55.407Z,64.10
2022-09-12T04:42:55.433Z,63.95
2022-09-12T04:43:55.388Z,61.72
2022-09-12T04:44:55.352Z,65.50
2022-09-12T04:45:55.373Z,65.88
2022-09-12T04:46:55.332Z,64.34
2022-09-12T04:47:55.336Z,65.57
2022-09-12T04:48:57.013Z,61.46
2022-09-12T04:49:55.680Z,64.69
2022-09-12T04:50:55.303Z,63.24
2022-09-12T04:51:55.300Z,65.38
2022-09-12T04:52:55.283Z,66.09
2022-09-12T04:53:55.291Z,65.48
2022-09-12T04:54:55.295Z,67.33
2022-09-12T04:55:56.449Z,66.26
2022-09-12T04:56:55.284Z,66.41
2022-09-12T04:57:55.257Z,64.49
2022-09-12T04:58:55.250Z,66.83
2022-09-12T04:59:55.245Z,66.82
2022-09-12T05:00:55.252Z,66.69
2022-09-12T05:01:55.281Z,67.01
2022-09-12T05:02:55.492Z,65.71
2022-09-12T05:03:55.204Z,65.49
2022-09-12T05:04:55.198Z,64.85
2022-09-12T05:05:56.540Z,66.65
2022-09-12T05:06:55.183Z,65.90
2022-09-12T05:07:55.194Z,64.20
2022-09-12T05:08:55.177Z,64.74
2022-09-12T05:09:55.412Z,66.81
2022-09-12T05:10:55.147Z,65.03
2022-09-12T05:12:10.201Z,66.02
2022-09-12T05:12:56.189Z,66.62
2022-09-12T05:13:55.134Z,65.35
2022-09-12T05:14:55.130Z,66.49
2022-09-12T05:15:55.205Z,66.91
2022-09-12T05:16:55.154Z,64.98
2022-09-12T05:17:55.089Z,63.98
2022-09-12T05:18:55.104Z,64.82
2022-09-12T05:19:55.078Z,65.95
2022-09-12T05:20:55.071Z,64.87
2022-09-12T05:21:55.081Z,65.33
2022-09-12T05:22:55.066Z,59.84
2022-09-12T05:23:55.045Z,66.78
2022-09-12T05:24:55.036Z,62.46
2022-09-12T05:25:55.061Z,64.63
2022-09-12T05:26:55.048Z,64.84
2022-09-12T05:27:55.072Z,65.00
2022-09-12T05:28:55.017Z,65.64
2022-09-12T05:29:54.998Z,65.48
2022-09-12T05:30:55.022Z,63.93
2022-09-12T05:31:54.977Z,63.63
2022-09-12T05:32:54.996Z,65.23
2022-09-12T05:33:54.962Z,64.77
2022-09-12T05:34:54.958Z,66.25
2022-09-12T05:35:54.959Z,65.27
2022-09-12T05:36:54.970Z,64.33
2022-09-12T05:37:54.935Z,65.48
2022-09-12T05:38:54.926Z,65.68
2022-09-12T05:39:54.955Z,65.98
2022-09-12T05:40:54.915Z,65.46
2022-09-12T05:41:54.900Z,65.81
2022-09-12T05:42:54.920Z,64.70
2022-09-12T05:43:54.891Z,65.58
2022-09-12T05:44:54.878Z,65.60
2022-09-12T05:45:54.894Z,65.63
2022-09-12T05:46:54.870Z,65.73
2022-09-12T05:47:54.854Z,65.32
2022-09-12T05:48:56.406Z,64.19
2022-09-12T05:49:54.845Z,65.19
2022-09-12T05:50:54.840Z,66.10
2022-09-12T05:51:54.835Z,64.64
2022-09-12T05:52:54.827Z,64.61
2022-09-12T05:53:54.816Z,65.42
2022-09-12T05:54:54.824Z,66.88
2022-09-12T05:55:54.818Z,63.85
2022-09-12T05:56:54.789Z,63.73
2022-09-12T05:57:54.777Z,65.14
2022-09-12T05:58:54.769Z,62.63
2022-09-12T05:59:54.847Z,66.70
2022-09-12T06:00:54.774Z,66.67
2022-09-12T06:01:54.903Z,65.59
2022-09-12T06:02:54.732Z,65.05
2022-09-12T06:03:55.026Z,66.49
2022-09-12T06:04:54.850Z,63.45
2022-09-12T06:05:54.740Z,65.48
2022-09-12T06:06:54.805Z,67.61
2022-09-12T06:07:54.703Z,67.83
2022-09-12T06:08:54.728Z,64.70
2022-09-12T06:09:54.794Z,64.10
2022-09-12T06:10:54.708Z,65.10
2022-09-12T06:11:54.678Z,64.49
2022-09-12T06:12:54.697Z,67.26
2022-09-12T06:13:54.653Z,64.76
2022-09-12T06:14:54.637Z,65.52
2022-09-12T06:15:54.629Z,65.62
2022-09-12T06:16:54.717Z,64.67
2022-09-12T06:17:54.644Z,63.83
2022-09-12T06:18:54.610Z,65.61
2022-09-12T06:19:54.612Z,67.27
2022-09-12T06:20:54.586Z,66.32
2022-09-12T06:21:54.587Z,64.36
2022-09-12T06:22:54.612Z,66.26
2022-09-12T06:23:54.588Z,64.23
2022-09-12T06:24:57.847Z,65.07
2022-09-12T06:25:54.580Z,64.24
2022-09-12T06:26:54.575Z,65.46
2022-09-12T06:27:54.562Z,66.00
2022-09-12T06:28:54.584Z,64.53
2022-09-12T06:29:54.617Z,64.17
2022-09-12T06:30:54.553Z,64.63
2022-09-12T06:31:54.501Z,65.06
2022-09-12T06:32:54.500Z,64.81
2022-09-12T06:33:54.500Z,65.01
2022-09-12T06:34:54.505Z,65.22
2022-09-12T06:35:54.511Z,66.77
2022-09-12T06:36:54.499Z,66.55
2022-09-12T06:37:54.471Z,66.02
2022-09-12T06:38:55.314Z,63.91
2022-09-12T06:39:54.478Z,66.13
2022-09-12T06:40:54.494Z,64.69
2022-09-12T06:41:54.506Z,66.60
2022-09-12T06:42:54.420Z,62.94
2022-09-12T06:43:54.428Z,64.58
2022-09-12T06:44:54.439Z,66.74
2022-09-12T06:45:54.433Z,65.65
2022-09-12T06:46:54.417Z,65.52
2022-09-12T06:47:54.388Z,64.90
2022-09-12T06:48:54.437Z,66.43
2022-09-12T06:49:54.362Z,64.68
2022-09-12T06:50:54.354Z,64.60
2022-09-12T06:51:54.460Z,66.73
2022-09-12T06:52:54.346Z,66.26
2022-09-12T06:53:54.327Z,66.22
2022-09-12T06:54:54.327Z,66.34
2022-09-12T06:55:54.303Z,66.96
2022-09-12T06:56:54.300Z,66.47
2022-09-12T06:57:54.354Z,65.53
2022-09-12T06:58:54.294Z,66.17
2022-09-12T06:59:54.286Z,63.27
2022-09-12T07:00:58.971Z,65.06
2022-09-12T07:01:54.371Z,65.36
2022-09-12T07:02:54.262Z,66.01
2022-09-12T07:03:54.265Z,65.55
2022-09-12T07:04:54.245Z,66.13
2022-09-12T07:05:54.301Z,65.82
2022-09-12T07:06:54.349Z,65.51
2022-09-12T07:07:54.222Z,66.32
2022-09-12T07:08:54.214Z,66.53
2022-09-12T07:09:54.213Z,66.57
2022-09-12T07:10:54.238Z,65.69
2022-09-12T07:11:54.182Z,65.93
2022-09-12T07:12:54.206Z,63.83
2022-09-12T07:13:54.236Z,63.43
2022-09-12T07:14:54.161Z,62.93
2022-09-12T07:15:54.187Z,63.79
2022-09-12T07:16:54.182Z,64.34
2022-09-12T07:17:54.148Z,62.81
2022-09-12T07:18:54.150Z,66.15
2022-09-12T07:19:54.152Z,65.58
2022-09-12T07:20:54.147Z,64.52
2022-09-12T07:21:58.011Z,66.00
2022-09-12T07:22:54.106Z,66.80
2022-09-12T07:23:54.089Z,65.38
2022-09-12T07:24:54.109Z,66.40
2022-09-12T07:25:54.088Z,66.54
2022-09-12T07:26:54.078Z,62.96
2022-09-12T07:27:54.058Z,66.93
2022-09-12T07:28:54.049Z,67.16
2022-09-12T07:29:54.034Z,66.08
2022-09-12T07:30:54.122Z,66.04
2022-09-12T07:31:54.089Z,66.99
2022-09-12T07:32:54.021Z,64.41
2022-09-12T07:33:54.878Z,66.27
2022-09-12T07:34:54.082Z,64.80
2022-09-12T07:35:54.018Z,64.25
2022-09-12T07:36:54.035Z,64.74
2022-09-12T07:37:54.008Z,64.23
2022-09-12T07:38:57.234Z,65.62
2022-09-12T07:39:54.027Z,66.55
2022-09-12T07:40:53.964Z,67.88
2022-09-12T07:41:53.986Z,64.27
2022-09-12T07:42:53.973Z,62.67
2022-09-12T07:43:53.937Z,64.20
2022-09-12T07:44:53.987Z,62.76
2022-09-12T07:45:53.930Z,64.61
2022-09-12T07:46:53.919Z,66.42
2022-09-12T07:47:53.923Z,66.91
2022-09-12T07:48:53.885Z,66.39
2022-09-12T07:49:53.882Z,64.61
2022-09-12T07:50:53.869Z,66.55
2022-09-12T07:51:53.887Z,65.92
2022-09-12T07:52:53.855Z,64.27
2022-09-12T07:53:53.847Z,68.30
2022-09-12T07:54:53.837Z,65.58
2022-09-12T07:55:53.840Z,66.39
2022-09-12T07:56:53.842Z,62.35
2022-09-12T07:57:53.938Z,61.97
2022-09-12T07:58:53.827Z,62.53
2022-09-12T07:59:54.029Z,60.89
2022-09-12T08:00:53.811Z,63.58
2022-09-12T08:01:53.792Z,63.08
2022-09-12T08:02:53.840Z,62.90
2022-09-12T08:03:53.797Z,63.44
2022-09-12T08:04:53.778Z,62.17
2022-09-12T08:05:53.763Z,60.75
2022-09-12T08:06:53.760Z,61.46
2022-09-12T08:07:57.627Z,64.99
2022-09-12T08:08:53.741Z,63.38
2022-09-12T08:09:53.727Z,63.71
2022-09-12T08:10:53.723Z,65.43
2022-09-12T08:11:53.707Z,63.47
2022-09-12T08:12:53.713Z,62.94
2022-09-12T08:13:55.614Z,64.58
2022-09-12T08:14:53.694Z,61.21
2022-09-12T08:15:53.727Z,60.88
2022-09-12T08:16:53.683Z,61.99
2022-09-12T08:17:53.676Z,64.66
2022-09-12T08:18:53.866Z,62.22
2022-09-12T08:19:53.645Z,59.97
2022-09-12T08:20:53.644Z,58.46
2022-09-12T08:21:53.630Z,61.16
2022-09-12T08:22:53.662Z,62.23
2022-09-12T08:23:53.617Z,63.33
2022-09-12T08:24:53.626Z,63.32
2022-09-12T08:25:53.598Z,65.22
2022-09-12T08:26:53.637Z,64.96
2022-09-12T08:27:54.353Z,64.18
2022-09-12T08:28:53.581Z,65.68
2022-09-12T08:29:53.586Z,62.74
2022-09-12T08:30:53.661Z,64.48
2022-09-12T08:31:57.139Z,61.88
2022-09-12T08:32:53.548Z,64.32
2022-09-12T08:33:53.540Z,63.33
2022-09-12T08:34:53.540Z,65.83
2022-09-12T08:35:53.558Z,66.40
2022-09-12T08:36:53.510Z,66.79
2022-09-12T08:37:53.533Z,63.22
2022-09-12T08:38:57.360Z,62.61
2022-09-12T08:39:54.515Z,63.88
2022-09-12T08:40:53.505Z,64.11
2022-09-12T08:41:53.482Z,64.72
2022-09-12T08:42:53.541Z,62.81
2022-09-12T08:43:56.671Z,60.99
2022-09-12T08:44:53.447Z,62.87
2022-09-12T08:45:53.562Z,63.00
2022-09-12T08:46:53.453Z,62.17
2022-09-12T08:47:53.430Z,63.07
2022-09-12T08:48:53.406Z,61.15
2022-09-12T08:49:53.417Z,61.31
2022-09-12T08:50:53.400Z,61.70
2022-09-12T08:51:53.409Z,60.80
2022-09-12T08:52:53.394Z,58.91
2022-09-12T08:53:53.458Z,56.87
2022-09-12T08:54:53.371Z,58.71
2022-09-12T08:55:53.354Z,60.75
2022-09-12T08:56:53.354Z,60.28
2022-09-12T08:57:53.351Z,58.81
2022-09-12T08:58:53.341Z,61.20
2022-09-12T08:59:53.357Z,61.00
2022-09-12T09:00:53.323Z,63.48
2022-09-12T09:01:53.363Z,61.44
2022-09-12T09:02:53.368Z,59.85
2022-09-12T09:03:53.326Z,59.13
2022-09-12T09:04:53.287Z,63.68
2022-09-12T09:05:53.277Z,61.69
2022-09-12T09:06:53.408Z,62.76
2022-09-12T09:07:53.273Z,60.27
2022-09-12T09:08:53.324Z,63.81
2022-09-12T09:09:53.339Z,63.52
2022-09-12T09:10:53.239Z,62.32
2022-09-12T09:11:53.263Z,62.60
2022-09-12T09:12:53.233Z,60.86
2022-09-12T09:13:53.228Z,63.68
2022-09-12T09:14:53.221Z,61.66
2022-09-12T09:15:53.272Z,61.04
2022-09-12T09:16:53.212Z,59.98
2022-09-12T09:17:53.182Z,62.83
2022-09-12T09:18:53.188Z,60.02
2022-09-12T09:19:53.169Z,60.54
2022-09-12T09:20:53.167Z,60.63
2022-09-12T09:21:53.149Z,60.20
2022-09-12T09:22:53.583Z,61.09
2022-09-12T09:23:53.128Z,62.02
2022-09-12T09:24:53.123Z,60.85
2022-09-12T09:25:53.117Z,62.00
2022-09-12T09:26:53.125Z,60.50
2022-09-12T09:27:53.131Z,62.75
2022-09-12T09:28:53.103Z,62.19
2022-09-12T09:29:53.085Z,61.74
2022-09-12T09:30:53.159Z,61.41
2022-09-12T09:31:53.080Z,59.76
2022-09-12T09:32:53.051Z,62.14
2022-09-12T09:33:53.070Z,61.43
2022-09-12T09:34:53.046Z,61.98
2022-09-12T09:35:53.036Z,62.80
2022-09-12T09:36:53.025Z,61.54
2022-09-12T09:40:19.236Z,63.94
2022-09-12T09:41:19.151Z,63.32
2022-09-12T09:42:19.164Z,59.54
2022-09-12T09:43:19.134Z,59.99
2022-09-12T09:44:19.133Z,61.02
2022-09-12T09:45:19.171Z,61.22
2022-09-12T09:46:19.155Z,60.28
2022-09-12T09:47:19.157Z,62.34
2022-09-12T09:48:19.125Z,62.48
2022-09-12T09:49:19.113Z,61.41
2022-09-12T09:50:19.127Z,62.92
2022-09-12T09:51:19.086Z,62.97
2022-09-12T09:52:19.079Z,60.65
2022-09-12T09:53:19.086Z,61.99
2022-09-12T09:54:19.061Z,62.73
2022-09-12T09:55:19.058Z,61.96
2022-09-12T09:56:21.514Z,63.48
2022-09-12T09:57:19.048Z,60.80
2022-09-12T09:58:19.025Z,61.41
2022-09-12T09:59:19.039Z,61.40
2022-09-12T10:00:19.015Z,62.93
2022-09-12T10:01:19.098Z,62.51
2022-09-12T10:02:23.680Z,62.58
2022-09-12T10:03:19.998Z,62.18
2022-09-12T10:04:18.984Z,61.45
2022-09-12T10:05:18.976Z,63.45
2022-09-12T10:06:18.965Z,61.25
2022-09-12T10:07:18.977Z,62.60
2022-09-12T10:08:18.956Z,59.78
2022-09-12T10:09:18.944Z,60.48
2022-09-12T10:10:18.958Z,60.22
2022-09-12T10:11:18.915Z,61.05
2022-09-12T10:12:18.933Z,62.45
2022-09-12T10:13:18.930Z,62.36
2022-09-12T10:14:18.900Z,61.09
2022-09-12T10:15:18.896Z,62.30
2022-09-12T10:16:19.007Z,63.00
2022-09-12T10:17:18.869Z,60.31
2022-09-12T10:18:18.861Z,62.81
2022-09-12T10:19:18.972Z,61.98
2022-09-12T10:20:22.260Z,61.76
2022-09-12T10:21:18.850Z,61.62
2022-09-12T10:22:18.858Z,61.59
2022-09-12T10:23:18.882Z,60.92
2022-09-12T10:24:18.825Z,62.98
2022-09-12T10:25:18.848Z,59.84
2022-09-12T10:26:18.810Z,62.38
2022-09-12T10:27:18.801Z,61.44
2022-09-12T10:28:18.800Z,62.79
2022-09-12T10:29:18.786Z,60.81
2022-09-12T10:30:18.772Z,60.92
2022-09-12T10:31:18.851Z,60.11
2022-09-12T10:32:18.757Z,61.59
2022-09-12T10:33:18.748Z,61.98
2022-09-12T10:34:18.744Z,61.59
2022-09-12T10:35:18.748Z,60.69
2022-09-12T10:36:18.722Z,61.86
2022-09-12T10:37:18.758Z,60.38
2022-09-12T10:38:18.728Z,59.87
2022-09-12T10:39:18.761Z,61.89
2022-09-12T10:40:18.719Z,58.71
2022-09-12T10:41:18.769Z,61.00
2022-09-12T10:42:23.270Z,61.62
2022-09-12T10:43:18.710Z,57.19
2022-09-12T10:44:18.670Z,61.70
2022-09-12T10:45:18.654Z,59.15
2022-09-12T10:46:19.763Z,62.82
2022-09-12T10:47:18.637Z,60.16
2022-09-12T10:48:18.673Z,58.87
2022-09-12T10:49:18.620Z,59.85
2022-09-12T10:50:22.848Z,60.44
2022-09-12T10:51:18.602Z,59.72
2022-09-12T10:52:18.590Z,60.28
2022-09-12T10:53:18.590Z,57.41
2022-09-12T10:54:18.590Z,58.66
2022-09-12T10:55:18.663Z,59.63
2022-09-12T10:56:18.612Z,58.96
2022-09-12T10:57:18.595Z,59.90
2022-09-12T10:58:18.566Z,60.44
2022-09-12T10:59:20.284Z,62.38
2022-09-12T11:00:18.554Z,60.90
2022-09-12T11:01:18.565Z,61.43
2022-09-12T11:02:18.601Z,60.53
2022-09-12T11:03:18.513Z,62.48
2022-09-12T11:04:18.503Z,62.24
2022-09-12T11:05:22.451Z,61.02
2022-09-12T11:06:18.484Z,60.12
2022-09-12T11:07:18.478Z,61.94
2022-09-12T11:08:18.513Z,60.97
2022-09-12T11:09:18.472Z,60.13
2022-09-12T11:10:18.458Z,60.43
2022-09-12T11:11:18.465Z,60.67
2022-09-12T11:12:18.441Z,54.94
2022-09-12T11:13:18.475Z,62.59
2022-09-12T11:14:18.420Z,60.27
2022-09-12T11:15:18.418Z,62.87
2022-09-12T11:16:18.664Z,61.86
2022-09-12T11:17:18.415Z,61.43
2022-09-12T11:18:19.234Z,59.62
2022-09-12T11:19:18.403Z,58.95
2022-09-12T11:20:18.381Z,61.14
2022-09-12T11:21:18.383Z,58.66
2022-09-12T11:22:18.390Z,60.85
2022-09-12T11:23:18.340Z,55.56
2022-09-12T11:24:18.343Z,58.95
2022-09-12T11:25:18.342Z,59.36
2022-09-12T11:26:18.410Z,58.14
2022-09-12T11:27:18.408Z,60.04
2022-09-12T11:28:18.378Z,59.30
2022-09-12T11:29:18.305Z,55.55
2022-09-12T11:30:18.288Z,55.70
2022-09-12T11:31:18.412Z,57.32
2022-09-12T11:32:18.362Z,59.38
2022-09-12T11:33:18.276Z,59.83
2022-09-12T11:34:18.263Z,56.18
2022-09-12T11:35:18.250Z,59.97
2022-09-12T11:36:18.289Z,60.14
2022-09-12T11:37:18.346Z,61.56
2022-09-12T11:38:18.269Z,57.94
2022-09-12T11:39:18.227Z,59.73
2022-09-12T11:40:18.262Z,59.22
2022-09-12T11:41:18.208Z,59.79
2022-09-12T11:42:18.218Z,60.22
2022-09-12T11:43:18.192Z,57.44
2022-09-12T11:44:18.241Z,60.82
2022-09-12T11:45:18.205Z,60.40
2022-09-12T11:46:18.378Z,60.70
2022-09-12T11:47:18.167Z,60.21
2022-09-12T11:48:18.162Z,56.13
2022-09-12T11:49:18.148Z,59.21
2022-09-12T11:50:18.164Z,59.67
2022-09-12T11:51:18.155Z,61.92
2022-09-12T11:52:18.126Z,56.87
2022-09-12T11:53:18.121Z,60.34
2022-09-12T11:54:18.109Z,61.99
2022-09-12T11:55:18.136Z,59.50
2022-09-12T11:56:18.091Z,60.71
2022-09-12T11:57:18.095Z,61.62
2022-09-12T11:58:18.093Z,57.35
2022-09-12T11:59:18.067Z,60.53
2022-09-12T12:00:18.074Z,62.14
2022-09-12T12:01:18.053Z,62.61
2022-09-12T12:02:18.142Z,62.22
2022-09-12T12:03:18.169Z,61.25
2022-09-12T12:04:18.032Z,64.67
2022-09-12T12:05:18.034Z,62.67
2022-09-12T12:06:18.018Z,63.00
2022-09-12T12:07:18.016Z,61.72
2022-09-12T12:08:18.022Z,63.01
2022-09-12T12:09:17.994Z,62.66
2022-09-12T12:10:17.999Z,63.75
2022-09-12T12:11:17.978Z,63.97
2022-09-12T12:12:17.993Z,65.09
2022-09-12T12:13:18.059Z,63.00
2022-09-12T12:14:17.957Z,61.59
2022-09-12T12:15:17.947Z,61.44
2022-09-12T12:16:17.990Z,57.86
2022-09-12T12:17:17.942Z,61.85
2022-09-12T12:18:17.957Z,60.48
2022-09-12T12:19:17.919Z,61.87
2022-09-12T12:20:18.632Z,62.15
2022-09-12T12:21:17.902Z,62.01
2022-09-12T12:22:17.889Z,62.58
2022-09-12T12:23:17.887Z,59.89
2022-09-12T12:24:17.902Z,61.01
2022-09-12T12:25:21.385Z,62.07
2022-09-12T12:26:17.867Z,62.39
2022-09-12T12:27:17.848Z,59.44
2022-09-12T12:28:17.872Z,60.64
2022-09-12T12:29:17.848Z,60.38
2022-09-12T12:30:17.829Z,62.95
2022-09-12T12:31:17.890Z,59.09
2022-09-12T12:32:17.871Z,60.06
2022-09-12T12:33:17.821Z,60.83
2022-09-12T12:34:17.813Z,61.33
2022-09-12T12:35:17.787Z,62.37
2022-09-12T12:36:17.786Z,60.61
2022-09-12T12:37:17.772Z,60.10
2022-09-12T12:38:17.784Z,60.65
2022-09-12T12:39:17.784Z,59.94
2022-09-12T12:40:17.819Z,58.82
2022-09-12T12:41:17.753Z,60.77
2022-09-12T12:42:20.089Z,60.32
2022-09-12T12:43:17.733Z,60.85
2022-09-12T12:44:24.376Z,60.66
2022-09-12T12:45:19.942Z,63.12
2022-09-12T12:46:18.749Z,62.04
2022-09-12T12:47:17.726Z,62.10
2022-09-12T12:48:21.171Z,59.10
2022-09-12T12:49:17.825Z,60.18
2022-09-12T12:50:17.666Z,62.73
2022-09-12T12:51:41.446Z,61.94
2022-09-12T12:52:19.665Z,62.70
2022-09-12T12:53:17.644Z,60.29
2022-09-12T12:54:33.274Z,61.76
2022-09-12T12:55:17.850Z,56.41